Lafayette, Wisconsin
Current Conditions -  °F | °C
As of 3:56 AM on Monday 22 Dec 2014 (Local Time) from KEAU Reporting Station
Haze Haze  
Wind Chill: 28°   Ceiling: 600
Heat Index: 36°   Visibility: 5mi
Dew Point: 33°   Wind: 12mph
Humidity: 89%   Direction: 160°SSE
Pressure: 29.76"   Gusts: NA
Location:  44.9743°N, 91.4379°W
Report Text: KEAU 220956Z AUTO 16010KT 5SM BR OVC006 02/01 A2976 RMK AO2 SLP085 T00220006
Loading
Personal Weather Stations






























Interactive Weather Map New forecast layout! Learn more

10-Day Weather Forecast

Advertisements
Track Severe Weather on mobile